sensor_id;sensor_type;location;lat;lon;timestamp;P1;durP1;ratioP1;P2;durP2;ratioP2
47335;SDS011;33068;51.990;5.926;2024-02-16T00:01:09;3.60;;;1.98;;
47335;SDS011;33068;51.990;5.926;2024-02-16T00:03:38;4.90;;;2.72;;
47335;SDS011;33068;51.990;5.926;2024-02-16T00:06:06;8.55;;;2.45;;
47335;SDS011;33068;51.990;5.926;2024-02-16T00:08:34;6.50;;;2.05;;
47335;SDS011;33068;51.990;5.926;2024-02-16T00:11:04;7.88;;;2.65;;
47335;SDS011;33068;51.990;5.926;2024-02-16T00:13:39;3.20;;;1.92;;
47335;SDS011;33068;51.990;5.926;2024-02-16T00:16:06;4.80;;;1.77;;
47335;SDS011;33068;51.990;5.926;2024-02-16T00:18:35;5.38;;;1.88;;
47335;SDS011;33068;51.990;5.926;2024-02-16T00:21:05;3.08;;;1.77;;
47335;SDS011;33068;51.990;5.926;2024-02-16T00:23:37;8.48;;;3.95;;
47335;SDS011;33068;51.990;5.926;2024-02-16T00:26:10;7.82;;;2.40;;
47335;SDS011;33068;51.990;5.926;2024-02-16T00:28:41;6.93;;;2.25;;
47335;SDS011;33068;51.990;5.926;2024-02-16T00:31:08;2.53;;;1.52;;
47335;SDS011;33068;51.990;5.926;2024-02-16T00:33:37;3.90;;;1.63;;
47335;SDS011;33068;51.990;5.926;2024-02-16T00:36:08;5.60;;;1.95;;
47335;SDS011;33068;51.990;5.926;2024-02-16T00:38:38;5.03;;;1.92;;
47335;SDS011;33068;51.990;5.926;2024-02-16T00:41:05;6.88;;;1.92;;
47335;SDS011;33068;51.990;5.926;2024-02-16T00:43:32;3.90;;;1.40;;
47335;SDS011;33068;51.990;5.926;2024-02-16T00:45:59;7.00;;;2.20;;
47335;SDS011;33068;51.990;5.926;2024-02-16T00:48:27;4.90;;;1.83;;
47335;SDS011;33068;51.990;5.926;2024-02-16T00:50:55;5.95;;;1.73;;
47335;SDS011;33068;51.990;5.926;2024-02-16T00:53:23;3.45;;;1.25;;
47335;SDS011;33068;51.990;5.926;2024-02-16T00:55:50;4.43;;;1.63;;
47335;SDS011;33068;51.990;5.926;2024-02-16T00:58:17;5.78;;;1.80;;
47335;SDS011;33068;51.990;5.926;2024-02-16T01:00:44;4.13;;;1.80;;
47335;SDS011;33068;51.990;5.926;2024-02-16T01:03:17;3.75;;;1.85;;
47335;SDS011;33068;51.990;5.926;2024-02-16T01:05:48;4.80;;;2.28;;
47335;SDS011;33068;51.990;5.926;2024-02-16T01:08:16;5.50;;;1.92;;
47335;SDS011;33068;51.990;5.926;2024-02-16T01:10:44;5.80;;;1.92;;
47335;SDS011;33068;51.990;5.926;2024-02-16T01:13:13;7.03;;;1.60;;
47335;SDS011;33068;51.990;5.926;2024-02-16T01:15:40;4.28;;;1.67;;
47335;SDS011;33068;51.990;5.926;2024-02-16T01:18:08;6.03;;;2.17;;
47335;SDS011;33068;51.990;5.926;2024-02-16T01:20:36;6.97;;;1.98;;
47335;SDS011;33068;51.990;5.926;2024-02-16T01:23:04;6.05;;;1.85;;
47335;SDS011;33068;51.990;5.926;2024-02-16T01:25:33;5.28;;;1.30;;
47335;SDS011;33068;51.990;5.926;2024-02-16T01:28:00;5.43;;;1.70;;
47335;SDS011;33068;51.990;5.926;2024-02-16T01:30:29;6.18;;;1.60;;
47335;SDS011;33068;51.990;5.926;2024-02-16T01:32:59;6.03;;;2.00;;
47335;SDS011;33068;51.990;5.926;2024-02-16T01:35:27;4.47;;;1.80;;
47335;SDS011;33068;51.990;5.926;2024-02-16T01:37:57;3.67;;;1.77;;
47335;SDS011;33068;51.990;5.926;2024-02-16T01:40:25;4.43;;;1.45;;
47335;SDS011;33068;51.990;5.926;2024-02-16T01:42:58;5.35;;;1.92;;
47335;SDS011;33068;51.990;5.926;2024-02-16T01:45:26;4.97;;;1.83;;
47335;SDS011;33068;51.990;5.926;2024-02-16T01:47:55;4.57;;;1.70;;
47335;SDS011;33068;51.990;5.926;2024-02-16T01:50:25;4.13;;;1.70;;
47335;SDS011;33068;51.990;5.926;2024-02-16T01:52:54;4.75;;;1.25;;
47335;SDS011;33068;51.990;5.926;2024-02-16T01:55:22;5.13;;;2.05;;
47335;SDS011;33068;51.990;5.926;2024-02-16T01:57:56;7.97;;;1.42;;
47335;SDS011;33068;51.990;5.926;2024-02-16T02:00:34;5.70;;;1.40;;
47335;SDS011;33068;51.990;5.926;2024-02-16T02:03:02;2.80;;;1.83;;
47335;SDS011;33068;51.990;5.926;2024-02-16T02:05:31;5.68;;;1.63;;
47335;SDS011;33068;51.990;5.926;2024-02-16T02:07:59;4.43;;;1.67;;
47335;SDS011;33068;51.990;5.926;2024-02-16T02:10:35;6.72;;;1.75;;
47335;SDS011;33068;51.990;5.926;2024-02-16T02:13:04;2.67;;;1.45;;
47335;SDS011;33068;51.990;5.926;2024-02-16T02:15:31;4.15;;;1.60;;
47335;SDS011;33068;51.990;5.926;2024-02-16T02:18:01;6.97;;;1.85;;
47335;SDS011;33068;51.990;5.926;2024-02-16T02:20:29;3.75;;;1.95;;
47335;SDS011;33068;51.990;5.926;2024-02-16T02:22:58;3.58;;;1.60;;
47335;SDS011;33068;51.990;5.926;2024-02-16T02:25:25;8.32;;;1.80;;
47335;SDS011;33068;51.990;5.926;2024-02-16T02:27:54;4.22;;;1.52;;
47335;SDS011;33068;51.990;5.926;2024-02-16T02:30:21;2.50;;;1.40;;
47335;SDS011;33068;51.990;5.926;2024-02-16T02:32:49;5.65;;;1.75;;
47335;SDS011;33068;51.990;5.926;2024-02-16T02:35:17;4.63;;;1.95;;
47335;SDS011;33068;51.990;5.926;2024-02-16T02:37:44;3.95;;;1.70;;
47335;SDS011;33068;51.990;5.926;2024-02-16T02:40:13;4.25;;;1.67;;
47335;SDS011;33068;51.990;5.926;2024-02-16T02:42:40;5.45;;;1.60;;
47335;SDS011;33068;51.990;5.926;2024-02-16T02:45:11;4.47;;;1.60;;
47335;SDS011;33068;51.990;5.926;2024-02-16T02:47:38;4.03;;;1.55;;
47335;SDS011;33068;51.990;5.926;2024-02-16T02:50:06;4.22;;;1.60;;
47335;SDS011;33068;51.990;5.926;2024-02-16T02:52:38;5.45;;;1.80;;
47335;SDS011;33068;51.990;5.926;2024-02-16T02:55:06;5.65;;;1.30;;
47335;SDS011;33068;51.990;5.926;2024-02-16T02:57:36;4.03;;;1.55;;
47335;SDS011;33068;51.990;5.926;2024-02-16T03:00:04;5.72;;;1.60;;
47335;SDS011;33068;51.990;5.926;2024-02-16T03:02:36;3.47;;;1.52;;
47335;SDS011;33068;51.990;5.926;2024-02-16T03:05:04;2.92;;;1.33;;
47335;SDS011;33068;51.990;5.926;2024-02-16T03:07:36;3.58;;;1.52;;
47335;SDS011;33068;51.990;5.926;2024-02-16T03:10:07;4.22;;;1.50;;
47335;SDS011;33068;51.990;5.926;2024-02-16T03:12:37;4.70;;;1.85;;
47335;SDS011;33068;51.990;5.926;2024-02-16T03:15:07;4.13;;;1.73;;
47335;SDS011;33068;51.990;5.926;2024-02-16T03:17:37;4.10;;;1.50;;
47335;SDS011;33068;51.990;5.926;2024-02-16T03:20:14;4.43;;;1.42;;
47335;SDS011;33068;51.990;5.926;2024-02-16T03:22:42;3.17;;;1.58;;
47335;SDS011;33068;51.990;5.926;2024-02-16T03:25:09;6.28;;;1.77;;
47335;SDS011;33068;51.990;5.926;2024-02-16T03:27:48;3.35;;;1.45;;
47335;SDS011;33068;51.990;5.926;2024-02-16T03:30:16;4.55;;;1.83;;
47335;SDS011;33068;51.990;5.926;2024-02-16T03:32:47;4.75;;;1.35;;
47335;SDS011;33068;51.990;5.926;2024-02-16T03:35:15;5.03;;;1.70;;
47335;SDS011;33068;51.990;5.926;2024-02-16T03:37:42;4.68;;;1.80;;
47335;SDS011;33068;51.990;5.926;2024-02-16T03:40:10;4.00;;;1.75;;
47335;SDS011;33068;51.990;5.926;2024-02-16T03:42:38;2.28;;;1.40;;
47335;SDS011;33068;51.990;5.926;2024-02-16T03:45:10;3.67;;;1.60;;
47335;SDS011;33068;51.990;5.926;2024-02-16T03:47:41;6.60;;;1.40;;
47335;SDS011;33068;51.990;5.926;2024-02-16T03:50:09;5.68;;;1.60;;
47335;SDS011;33068;51.990;5.926;2024-02-16T03:52:36;4.97;;;1.42;;
47335;SDS011;33068;51.990;5.926;2024-02-16T03:55:04;4.00;;;1.63;;
47335;SDS011;33068;51.990;5.926;2024-02-16T03:57:34;4.40;;;1.67;;
47335;SDS011;33068;51.990;5.926;2024-02-16T04:00:03;3.72;;;1.27;;
47335;SDS011;33068;51.990;5.926;2024-02-16T04:02:42;4.30;;;1.42;;
47335;SDS011;33068;51.990;5.926;2024-02-16T04:05:10;3.35;;;1.90;;
47335;SDS011;33068;51.990;5.926;2024-02-16T04:07:37;4.03;;;1.60;;
47335;SDS011;33068;51.990;5.926;2024-02-16T04:10:06;3.80;;;1.50;;
47335;SDS011;33068;51.990;5.926;2024-02-16T04:12:36;3.35;;;1.30;;
47335;SDS011;33068;51.990;5.926;2024-02-16T04:15:04;6.32;;;2.05;;
47335;SDS011;33068;51.990;5.926;2024-02-16T04:17:32;2.92;;;1.65;;
47335;SDS011;33068;51.990;5.926;2024-02-16T04:20:00;4.50;;;1.60;;
47335;SDS011;33068;51.990;5.926;2024-02-16T04:22:28;3.85;;;1.60;;
47335;SDS011;33068;51.990;5.926;2024-02-16T04:24:55;3.88;;;1.60;;
47335;SDS011;33068;51.990;5.926;2024-02-16T04:27:23;3.90;;;1.85;;
47335;SDS011;33068;51.990;5.926;2024-02-16T04:29:52;3.38;;;1.77;;
47335;SDS011;33068;51.990;5.926;2024-02-16T04:32:20;5.88;;;2.15;;
47335;SDS011;33068;51.990;5.926;2024-02-16T04:34:49;5.55;;;1.90;;
47335;SDS011;33068;51.990;5.926;2024-02-16T04:37:18;4.75;;;1.52;;
47335;SDS011;33068;51.990;5.926;2024-02-16T04:39:46;4.82;;;1.83;;
47335;SDS011;33068;51.990;5.926;2024-02-16T04:42:16;5.45;;;1.88;;
47335;SDS011;33068;51.990;5.926;2024-02-16T04:44:43;6.22;;;2.78;;
47335;SDS011;33068;51.990;5.926;2024-02-16T04:47:11;3.80;;;1.70;;
47335;SDS011;33068;51.990;5.926;2024-02-16T04:49:39;3.72;;;2.15;;
47335;SDS011;33068;51.990;5.926;2024-02-16T04:52:06;3.38;;;1.98;;
47335;SDS011;33068;51.990;5.926;2024-02-16T04:54:35;3.33;;;1.77;;
47335;SDS011;33068;51.990;5.926;2024-02-16T04:57:05;5.82;;;1.85;;
47335;SDS011;33068;51.990;5.926;2024-02-16T04:59:33;4.65;;;1.67;;
47335;SDS011;33068;51.990;5.926;2024-02-16T05:02:00;4.63;;;1.80;;
47335;SDS011;33068;51.990;5.926;2024-02-16T05:04:29;2.40;;;1.42;;
47335;SDS011;33068;51.990;5.926;2024-02-16T05:06:56;4.43;;;1.80;;
47335;SDS011;33068;51.990;5.926;2024-02-16T05:09:23;4.70;;;1.90;;
47335;SDS011;33068;51.990;5.926;2024-02-16T05:11:54;4.20;;;1.50;;
47335;SDS011;33068;51.990;5.926;2024-02-16T05:14:21;3.33;;;1.60;;
47335;SDS011;33068;51.990;5.926;2024-02-16T05:16:49;5.25;;;2.08;;
47335;SDS011;33068;51.990;5.926;2024-02-16T05:19:16;5.78;;;2.00;;
47335;SDS011;33068;51.990;5.926;2024-02-16T05:21:45;3.25;;;2.20;;
47335;SDS011;33068;51.990;5.926;2024-02-16T05:24:14;4.05;;;1.73;;
47335;SDS011;33068;51.990;5.926;2024-02-16T05:26:45;7.45;;;2.28;;
47335;SDS011;33068;51.990;5.926;2024-02-16T05:29:17;3.92;;;1.95;;
47335;SDS011;33068;51.990;5.926;2024-02-16T05:31:45;4.30;;;1.63;;
47335;SDS011;33068;51.990;5.926;2024-02-16T05:34:12;3.83;;;1.83;;
47335;SDS011;33068;51.990;5.926;2024-02-16T05:36:40;4.32;;;2.03;;
47335;SDS011;33068;51.990;5.926;2024-02-16T05:39:07;2.13;;;1.55;;
47335;SDS011;33068;51.990;5.926;2024-02-16T05:41:45;2.88;;;1.90;;
47335;SDS011;33068;51.990;5.926;2024-02-16T05:44:13;3.80;;;1.70;;
47335;SDS011;33068;51.990;5.926;2024-02-16T05:46:42;3.30;;;2.10;;
47335;SDS011;33068;51.990;5.926;2024-02-16T05:49:12;4.75;;;2.03;;
47335;SDS011;33068;51.990;5.926;2024-02-16T05:51:42;4.85;;;2.35;;
47335;SDS011;33068;51.990;5.926;2024-02-16T05:54:30;4.70;;;1.52;;
47335;SDS011;33068;51.990;5.926;2024-02-16T05:56:58;5.80;;;1.60;;
47335;SDS011;33068;51.990;5.926;2024-02-16T05:59:25;4.22;;;2.20;;
47335;SDS011;33068;51.990;5.926;2024-02-16T06:01:57;5.07;;;1.90;;
47335;SDS011;33068;51.990;5.926;2024-02-16T06:04:24;3.67;;;1.95;;
47335;SDS011;33068;51.990;5.926;2024-02-16T06:06:55;3.35;;;1.77;;
47335;SDS011;33068;51.990;5.926;2024-02-16T06:09:25;2.88;;;1.77;;
47335;SDS011;33068;51.990;5.926;2024-02-16T06:12:02;5.47;;;2.03;;
47335;SDS011;33068;51.990;5.926;2024-02-16T06:14:30;5.18;;;1.90;;
47335;SDS011;33068;51.990;5.926;2024-02-16T06:17:04;6.80;;;1.98;;
47335;SDS011;33068;51.990;5.926;2024-02-16T06:19:33;4.75;;;2.30;;
47335;SDS011;33068;51.990;5.926;2024-02-16T06:22:06;2.78;;;2.10;;
47335;SDS011;33068;51.990;5.926;2024-02-16T06:24:40;4.63;;;1.70;;
47335;SDS011;33068;51.990;5.926;2024-02-16T06:27:09;5.15;;;2.10;;
47335;SDS011;33068;51.990;5.926;2024-02-16T06:33:32;7.95;;;1.98;;
47335;SDS011;33068;51.990;5.926;2024-02-16T06:36:00;6.82;;;1.77;;
47335;SDS011;33068;51.990;5.926;2024-02-16T06:41:14;6.15;;;2.00;;
47335;SDS011;33068;51.990;5.926;2024-02-16T06:46:36;4.78;;;1.92;;
47335;SDS011;33068;51.990;5.926;2024-02-16T06:49:55;5.72;;;2.75;;
47335;SDS011;33068;51.990;5.926;2024-02-16T06:52:30;3.15;;;1.63;;
47335;SDS011;33068;51.990;5.926;2024-02-16T06:55:17;5.85;;;1.88;;
47335;SDS011;33068;51.990;5.926;2024-02-16T06:58:06;5.43;;;2.03;;
47335;SDS011;33068;51.990;5.926;2024-02-16T07:00:47;5.45;;;2.35;;
47335;SDS011;33068;51.990;5.926;2024-02-16T07:03:14;4.07;;;2.03;;
47335;SDS011;33068;51.990;5.926;2024-02-16T07:05:43;4.43;;;2.05;;
47335;SDS011;33068;51.990;5.926;2024-02-16T07:08:10;5.57;;;1.95;;
47335;SDS011;33068;51.990;5.926;2024-02-16T07:10:37;5.97;;;2.30;;
47335;SDS011;33068;51.990;5.926;2024-02-16T07:13:06;3.50;;;1.80;;
47335;SDS011;33068;51.990;5.926;2024-02-16T07:15:33;5.68;;;1.88;;
47335;SDS011;33068;51.990;5.926;2024-02-16T07:18:02;5.25;;;2.42;;
47335;SDS011;33068;51.990;5.926;2024-02-16T07:20:34;4.93;;;2.25;;
47335;SDS011;33068;51.990;5.926;2024-02-16T07:29:19;4.10;;;2.38;;
47335;SDS011;33068;51.990;5.926;2024-02-16T07:32:20;6.88;;;3.05;;
47335;SDS011;33068;51.990;5.926;2024-02-16T07:35:07;6.22;;;2.65;;
47335;SDS011;33068;51.990;5.926;2024-02-16T07:37:51;6.07;;;3.05;;
47335;SDS011;33068;51.990;5.926;2024-02-16T07:44:04;6.07;;;2.70;;
47335;SDS011;33068;51.990;5.926;2024-02-16T07:46:50;5.32;;;2.80;;
47335;SDS011;33068;51.990;5.926;2024-02-16T07:49:57;8.82;;;2.63;;
47335;SDS011;33068;51.990;5.926;2024-02-16T07:55:52;9.30;;;2.55;;
47335;SDS011;33068;51.990;5.926;2024-02-16T07:58:24;4.57;;;2.47;;
47335;SDS011;33068;51.990;5.926;2024-02-16T08:01:35;6.75;;;4.13;;
47335;SDS011;33068;51.990;5.926;2024-02-16T08:04:28;9.57;;;4.57;;
47335;SDS011;33068;51.990;5.926;2024-02-16T08:06:57;12.35;;;4.30;;
47335;SDS011;33068;51.990;5.926;2024-02-16T08:09:26;9.52;;;4.57;;
47335;SDS011;33068;51.990;5.926;2024-02-16T08:11:53;7.63;;;3.38;;
47335;SDS011;33068;51.990;5.926;2024-02-16T08:14:24;6.28;;;2.97;;
47335;SDS011;33068;51.990;5.926;2024-02-16T08:16:53;8.48;;;4.20;;
47335;SDS011;33068;51.990;5.926;2024-02-16T08:19:21;5.97;;;3.08;;
47335;SDS011;33068;51.990;5.926;2024-02-16T08:21:48;3.97;;;2.70;;
47335;SDS011;33068;51.990;5.926;2024-02-16T08:24:16;3.90;;;2.60;;
47335;SDS011;33068;51.990;5.926;2024-02-16T08:33:04;4.00;;;2.50;;
47335;SDS011;33068;51.990;5.926;2024-02-16T08:36:13;6.15;;;3.28;;
47335;SDS011;33068;51.990;5.926;2024-02-16T08:39:20;6.00;;;2.47;;
47335;SDS011;33068;51.990;5.926;2024-02-16T08:41:57;6.53;;;2.90;;
47335;SDS011;33068;51.990;5.926;2024-02-16T08:44:34;5.53;;;2.88;;
47335;SDS011;33068;51.990;5.926;2024-02-16T08:47:18;6.07;;;2.75;;
47335;SDS011;33068;51.990;5.926;2024-02-16T08:49:48;7.10;;;2.60;;
47335;SDS011;33068;51.990;5.926;2024-02-16T08:52:33;7.28;;;2.90;;
47335;SDS011;33068;51.990;5.926;2024-02-16T08:55:24;7.20;;;3.28;;
47335;SDS011;33068;51.990;5.926;2024-02-16T08:57:59;5.78;;;2.80;;
47335;SDS011;33068;51.990;5.926;2024-02-16T09:00:47;5.22;;;2.85;;
47335;SDS011;33068;51.990;5.926;2024-02-16T09:03:43;7.50;;;2.95;;
47335;SDS011;33068;51.990;5.926;2024-02-16T09:09:21;9.52;;;3.20;;
47335;SDS011;33068;51.990;5.926;2024-02-16T09:11:51;8.05;;;3.03;;
47335;SDS011;33068;51.990;5.926;2024-02-16T09:15:00;8.88;;;3.42;;
47335;SDS011;33068;51.990;5.926;2024-02-16T09:17:51;5.68;;;3.10;;
47335;SDS011;33068;51.990;5.926;2024-02-16T09:20:59;9.05;;;3.70;;
47335;SDS011;33068;51.990;5.926;2024-02-16T09:23:43;6.07;;;3.20;;
47335;SDS011;33068;51.990;5.926;2024-02-16T09:26:29;6.25;;;3.20;;
47335;SDS011;33068;51.990;5.926;2024-02-16T09:29:40;7.30;;;3.53;;
47335;SDS011;33068;51.990;5.926;2024-02-16T09:32:30;9.85;;;4.18;;
47335;SDS011;33068;51.990;5.926;2024-02-16T09:35:20;7.82;;;2.92;;
47335;SDS011;33068;51.990;5.926;2024-02-16T09:37:52;7.25;;;3.05;;
47335;SDS011;33068;51.990;5.926;2024-02-16T09:43:34;6.15;;;3.67;;
47335;SDS011;33068;51.990;5.926;2024-02-16T09:46:28;6.47;;;3.50;;
47335;SDS011;33068;51.990;5.926;2024-02-16T09:49:33;8.13;;;3.38;;
47335;SDS011;33068;51.990;5.926;2024-02-16T09:52:54;7.80;;;3.28;;
47335;SDS011;33068;51.990;5.926;2024-02-16T09:55:22;8.07;;;3.22;;
47335;SDS011;33068;51.990;5.926;2024-02-16T09:58:00;7.75;;;3.13;;
47335;SDS011;33068;51.990;5.926;2024-02-16T10:03:44;6.60;;;3.38;;
47335;SDS011;33068;51.990;5.926;2024-02-16T10:06:12;9.48;;;3.38;;
47335;SDS011;33068;51.990;5.926;2024-02-16T10:08:51;7.68;;;3.60;;
47335;SDS011;33068;51.990;5.926;2024-02-16T10:11:38;6.63;;;3.67;;
47335;SDS011;33068;51.990;5.926;2024-02-16T10:17:18;9.50;;;3.65;;
47335;SDS011;33068;51.990;5.926;2024-02-16T10:20:03;8.40;;;3.45;;
47335;SDS011;33068;51.990;5.926;2024-02-16T10:22:46;6.50;;;3.38;;
47335;SDS011;33068;51.990;5.926;2024-02-16T10:25:37;6.78;;;3.58;;
47335;SDS011;33068;51.990;5.926;2024-02-16T10:28:11;6.90;;;4.07;;
47335;SDS011;33068;51.990;5.926;2024-02-16T10:31:07;11.13;;;3.65;;
47335;SDS011;33068;51.990;5.926;2024-02-16T10:34:05;9.52;;;3.92;;
47335;SDS011;33068;51.990;5.926;2024-02-16T10:36:47;9.52;;;4.38;;
47335;SDS011;33068;51.990;5.926;2024-02-16T10:39:57;9.98;;;4.20;;
47335;SDS011;33068;51.990;5.926;2024-02-16T10:42:45;9.73;;;4.30;;
47335;SDS011;33068;51.990;5.926;2024-02-16T10:45:22;7.50;;;4.85;;
47335;SDS011;33068;51.990;5.926;2024-02-16T10:51:02;8.88;;;5.03;;
47335;SDS011;33068;51.990;5.926;2024-02-16T10:54:22;10.25;;;4.82;;
47335;SDS011;33068;51.990;5.926;2024-02-16T10:57:38;9.30;;;4.07;;
47335;SDS011;33068;51.990;5.926;2024-02-16T11:00:09;12.15;;;5.25;;
47335;SDS011;33068;51.990;5.926;2024-02-16T11:02:56;8.90;;;4.63;;
47335;SDS011;33068;51.990;5.926;2024-02-16T11:05:40;18.42;;;6.80;;
47335;SDS011;33068;51.990;5.926;2024-02-16T11:08:32;9.63;;;5.82;;
47335;SDS011;33068;51.990;5.926;2024-02-16T11:11:25;10.30;;;5.65;;
47335;SDS011;33068;51.990;5.926;2024-02-16T11:17:02;8.80;;;5.65;;
47335;SDS011;33068;51.990;5.926;2024-02-16T11:20:17;12.60;;;6.53;;
47335;SDS011;33068;51.990;5.926;2024-02-16T11:23:07;14.00;;;7.00;;
47335;SDS011;33068;51.990;5.926;2024-02-16T11:29:33;12.55;;;7.15;;
47335;SDS011;33068;51.990;5.926;2024-02-16T11:32:07;17.15;;;7.40;;
47335;SDS011;33068;51.990;5.926;2024-02-16T11:34:51;16.42;;;8.40;;
47335;SDS011;33068;51.990;5.926;2024-02-16T11:37:47;16.50;;;8.73;;
47335;SDS011;33068;51.990;5.926;2024-02-16T11:40:43;16.35;;;9.07;;
47335;SDS011;33068;51.990;5.926;2024-02-16T11:45:06;17.73;;;9.07;;
47335;SDS011;33068;51.990;5.926;2024-02-16T11:47:23;20.65;;;10.63;;
47335;SDS011;33068;51.990;5.926;2024-02-16T11:56:36;20.35;;;13.73;;
47335;SDS011;33068;51.990;5.926;2024-02-16T11:59:04;20.77;;;13.18;;
47335;SDS011;33068;51.990;5.926;2024-02-16T12:01:32;19.33;;;12.82;;
47335;SDS011;33068;51.990;5.926;2024-02-16T12:04:00;22.58;;;13.85;;
47335;SDS011;33068;51.990;5.926;2024-02-16T12:06:27;18.17;;;13.10;;
47335;SDS011;33068;51.990;5.926;2024-02-16T12:08:56;19.98;;;14.20;;
47335;SDS011;33068;51.990;5.926;2024-02-16T12:11:23;19.13;;;12.75;;
47335;SDS011;33068;51.990;5.926;2024-02-16T12:13:52;21.20;;;14.00;;
47335;SDS011;33068;51.990;5.926;2024-02-16T12:16:19;15.00;;;12.40;;
47335;SDS011;33068;51.990;5.926;2024-02-16T12:18:46;17.05;;;12.77;;
47335;SDS011;33068;51.990;5.926;2024-02-16T12:21:17;18.73;;;12.52;;
47335;SDS011;33068;51.990;5.926;2024-02-16T12:23:46;18.13;;;13.15;;
47335;SDS011;33068;51.990;5.926;2024-02-16T12:26:13;18.42;;;12.68;;
47335;SDS011;33068;51.990;5.926;2024-02-16T12:28:40;16.17;;;11.95;;
47335;SDS011;33068;51.990;5.926;2024-02-16T12:31:09;17.30;;;13.32;;
47335;SDS011;33068;51.990;5.926;2024-02-16T12:33:36;17.33;;;13.13;;
47335;SDS011;33068;51.990;5.926;2024-02-16T12:36:03;16.63;;;12.75;;
47335;SDS011;33068;51.990;5.926;2024-02-16T12:38:31;16.10;;;13.20;;
47335;SDS011;33068;51.990;5.926;2024-02-16T12:40:58;17.67;;;14.48;;
47335;SDS011;33068;51.990;5.926;2024-02-16T12:43:25;20.02;;;14.32;;
47335;SDS011;33068;51.990;5.926;2024-02-16T12:45:52;17.55;;;13.38;;
47335;SDS011;33068;51.990;5.926;2024-02-16T12:48:21;18.83;;;14.07;;
47335;SDS011;33068;51.990;5.926;2024-02-16T12:50:48;18.13;;;13.18;;
47335;SDS011;33068;51.990;5.926;2024-02-16T12:53:17;17.52;;;13.35;;
47335;SDS011;33068;51.990;5.926;2024-02-16T12:55:50;21.55;;;14.65;;
47335;SDS011;33068;51.990;5.926;2024-02-16T12:58:17;22.50;;;14.65;;
47335;SDS011;33068;51.990;5.926;2024-02-16T13:00:44;20.42;;;13.95;;
47335;SDS011;33068;51.990;5.926;2024-02-16T13:03:11;18.17;;;16.27;;
47335;SDS011;33068;51.990;5.926;2024-02-16T13:05:39;18.50;;;14.00;;
47335;SDS011;33068;51.990;5.926;2024-02-16T13:08:08;19.85;;;16.83;;
47335;SDS011;33068;51.990;5.926;2024-02-16T13:10:35;21.38;;;15.30;;
47335;SDS011;33068;51.990;5.926;2024-02-16T13:13:02;20.80;;;16.60;;
47335;SDS011;33068;51.990;5.926;2024-02-16T13:15:29;16.27;;;14.57;;
47335;SDS011;33068;51.990;5.926;2024-02-16T13:17:58;20.30;;;16.35;;
47335;SDS011;33068;51.990;5.926;2024-02-16T13:20:25;21.92;;;17.08;;
47335;SDS011;33068;51.990;5.926;2024-02-16T13:22:53;22.27;;;16.30;;
47335;SDS011;33068;51.990;5.926;2024-02-16T13:25:20;20.83;;;15.73;;
47335;SDS011;33068;51.990;5.926;2024-02-16T13:27:47;21.63;;;14.88;;
47335;SDS011;33068;51.990;5.926;2024-02-16T13:30:15;18.05;;;13.90;;
47335;SDS011;33068;51.990;5.926;2024-02-16T13:32:42;17.30;;;13.65;;
47335;SDS011;33068;51.990;5.926;2024-02-16T13:35:09;20.73;;;16.23;;
47335;SDS011;33068;51.990;5.926;2024-02-16T13:37:36;21.75;;;14.90;;
47335;SDS011;33068;51.990;5.926;2024-02-16T13:40:05;19.20;;;13.77;;
47335;SDS011;33068;51.990;5.926;2024-02-16T13:42:37;25.67;;;17.73;;
47335;SDS011;33068;51.990;5.926;2024-02-16T13:45:05;18.33;;;12.73;;
47335;SDS011;33068;51.990;5.926;2024-02-16T13:47:32;19.20;;;13.48;;
47335;SDS011;33068;51.990;5.926;2024-02-16T13:49:59;19.13;;;13.75;;
47335;SDS011;33068;51.990;5.926;2024-02-16T13:52:27;18.90;;;13.85;;
47335;SDS011;33068;51.990;5.926;2024-02-16T13:54:54;16.80;;;11.40;;
47335;SDS011;33068;51.990;5.926;2024-02-16T13:57:22;13.40;;;10.70;;
47335;SDS011;33068;51.990;5.926;2024-02-16T13:59:49;10.65;;;9.35;;
47335;SDS011;33068;51.990;5.926;2024-02-16T14:02:16;11.30;;;8.73;;
47335;SDS011;33068;51.990;5.926;2024-02-16T14:04:43;9.40;;;7.53;;
47335;SDS011;33068;51.990;5.926;2024-02-16T14:07:11;10.98;;;7.97;;
47335;SDS011;33068;51.990;5.926;2024-02-16T14:09:38;10.63;;;7.65;;
47335;SDS011;33068;51.990;5.926;2024-02-16T14:12:05;9.65;;;7.68;;
47335;SDS011;33068;51.990;5.926;2024-02-16T14:14:34;9.77;;;7.07;;
47335;SDS011;33068;51.990;5.926;2024-02-16T14:17:01;8.48;;;7.43;;
47335;SDS011;33068;51.990;5.926;2024-02-16T14:19:28;7.40;;;6.38;;
47335;SDS011;33068;51.990;5.926;2024-02-16T14:21:55;10.05;;;7.18;;
47335;SDS011;33068;51.990;5.926;2024-02-16T14:24:22;12.30;;;7.38;;
47335;SDS011;33068;51.990;5.926;2024-02-16T14:26:50;8.63;;;5.53;;
47335;SDS011;33068;51.990;5.926;2024-02-16T14:29:18;7.57;;;5.55;;
47335;SDS011;33068;51.990;5.926;2024-02-16T14:31:46;7.55;;;6.22;;
47335;SDS011;33068;51.990;5.926;2024-02-16T14:34:14;6.32;;;4.88;;
47335;SDS011;33068;51.990;5.926;2024-02-16T14:36:41;5.47;;;4.57;;
47335;SDS011;33068;51.990;5.926;2024-02-16T14:39:08;5.93;;;5.13;;
47335;SDS011;33068;51.990;5.926;2024-02-16T14:41:36;6.47;;;2.83;;
47335;SDS011;33068;51.990;5.926;2024-02-16T14:44:03;4.65;;;2.50;;
47335;SDS011;33068;51.990;5.926;2024-02-16T14:46:31;4.68;;;2.88;;
47335;SDS011;33068;51.990;5.926;2024-02-16T14:48:59;4.72;;;2.80;;
47335;SDS011;33068;51.990;5.926;2024-02-16T14:51:26;3.38;;;2.40;;
47335;SDS011;33068;51.990;5.926;2024-02-16T14:53:54;3.70;;;1.90;;
47335;SDS011;33068;51.990;5.926;2024-02-16T14:56:21;2.85;;;1.85;;
47335;SDS011;33068;51.990;5.926;2024-02-16T14:58:49;2.22;;;1.58;;
47335;SDS011;33068;51.990;5.926;2024-02-16T15:01:16;4.15;;;2.35;;
47335;SDS011;33068;51.990;5.926;2024-02-16T15:03:43;2.40;;;2.20;;
47335;SDS011;33068;51.990;5.926;2024-02-16T15:06:11;3.17;;;2.38;;
47335;SDS011;33068;51.990;5.926;2024-02-16T15:08:38;3.55;;;1.92;;
47335;SDS011;33068;51.990;5.926;2024-02-16T15:11:05;2.75;;;1.77;;
47335;SDS011;33068;51.990;5.926;2024-02-16T15:13:33;2.63;;;1.83;;
47335;SDS011;33068;51.990;5.926;2024-02-16T15:16:03;3.78;;;2.22;;
47335;SDS011;33068;51.990;5.926;2024-02-16T15:18:30;3.78;;;1.88;;
47335;SDS011;33068;51.990;5.926;2024-02-16T15:20:58;3.40;;;1.88;;
47335;SDS011;33068;51.990;5.926;2024-02-16T15:23:26;2.15;;;1.92;;
47335;SDS011;33068;51.990;5.926;2024-02-16T15:25:54;5.47;;;2.40;;
47335;SDS011;33068;51.990;5.926;2024-02-16T15:28:21;5.03;;;2.15;;
47335;SDS011;33068;51.990;5.926;2024-02-16T15:30:48;3.50;;;1.20;;
47335;SDS011;33068;51.990;5.926;2024-02-16T15:33:15;4.20;;;2.30;;
47335;SDS011;33068;51.990;5.926;2024-02-16T15:35:42;5.15;;;1.80;;
47335;SDS011;33068;51.990;5.926;2024-02-16T15:38:09;3.20;;;1.77;;
47335;SDS011;33068;51.990;5.926;2024-02-16T15:40:37;1.90;;;1.50;;
47335;SDS011;33068;51.990;5.926;2024-02-16T15:43:06;2.88;;;1.20;;
47335;SDS011;33068;51.990;5.926;2024-02-16T15:45:33;1.95;;;1.38;;
47335;SDS011;33068;51.990;5.926;2024-02-16T15:48:05;2.90;;;1.30;;
47335;SDS011;33068;51.990;5.926;2024-02-16T15:50:33;3.90;;;1.88;;
47335;SDS011;33068;51.990;5.926;2024-02-16T15:53:00;1.65;;;1.55;;
47335;SDS011;33068;51.990;5.926;2024-02-16T15:55:29;6.18;;;2.90;;
47335;SDS011;33068;51.990;5.926;2024-02-16T15:57:58;5.30;;;2.60;;
47335;SDS011;33068;51.990;5.926;2024-02-16T16:00:25;3.38;;;2.40;;
47335;SDS011;33068;51.990;5.926;2024-02-16T16:02:52;4.22;;;2.83;;
47335;SDS011;33068;51.990;5.926;2024-02-16T16:05:19;4.97;;;3.45;;
47335;SDS011;33068;51.990;5.926;2024-02-16T16:07:46;7.18;;;3.78;;
47335;SDS011;33068;51.990;5.926;2024-02-16T16:10:14;3.08;;;2.50;;
47335;SDS011;33068;51.990;5.926;2024-02-16T16:12:42;6.82;;;3.20;;
47335;SDS011;33068;51.990;5.926;2024-02-16T16:15:10;5.28;;;3.45;;